Current | Forecast
Updated: 11:00 AM CET on November 19, 2017
Observed at Osijek - Cepin, Hungary
Temperature 3°C
Windchill 2°C
Humidity 100%
Dew Point 3°C
Wind Variable at 6 km/h
Pressure 1015 hPa (Steady)
Conditions Fog
Visibility 0.1 kilometers
UV N/A
Clouds
Yesterday's Maximum 7°C
Yesterday's Minimum 5°C approx.
Yesterday's Heating Degree Days 22 approx.
Sunrise6:48 AM CET
Sunset4:05 PM CET
Moon Rise7:19 AM CET
Moon Set5:08 PM CET
Moon PhaseMoon Phase
New Moon
Raw METARMETAR LDOS 191000Z VRB03KT 0100 FG VV001 03/03 Q1015


Monday
. High: 71° F.
Tuesday
. High: 78° F.
Wednesday
. High: 84° F.
Thursday
. High: 86° F.
Friday
. High: 68° F.
Saturday
. High: 73° F.
Sunday
. High: 80° F.
Monday
. High: 78° F.

Units: English | Metric

Find the Weather for any City, State or Zipcode, or Country:

U.S. State List | Severe Weather | Tropical Storms | Ski Conditions
United States | Canada | Central America | South America | Asia | Europe | Australia | Africa | Islands

Weather Underground

© Copyright 2017
The Weather Company, LLC